Terminal Aerodrome Forecast
Issued by NWS

Home | Current Version | Previous Version | Text Only | Print | Product List | Glossary On
Versions: 1 2 3 4 5 6 7 8 9 10 11 12 13
000
FTUS43 KDMX 231133 AAA
TAFOTM
TAF AMD
KOTM 231133Z 2312/2412 30008KT P6SM SCT009 BKN024
      TEMPO 2312/2315 BKN008 OVC016
     FM231500 32009KT P6SM SCT025 BKN035
     FM232000 33009KT P6SM VCSH SCT030 BKN040
     FM240400 32007KT P6SM VCSH SCT015 BKN030
     FM240900 34008KT P6SM SCT009 OVC013=

USA.gov is the U.S. government's official web portal to all federal, state and local government web resources and services.